Time;durP1;ratioP1;P1;durP2;ratioP2;P2;SDS_P1;SDS_P2;PMS_P1;PMS_P2;Temp;Humidity;BMP_temperature;BMP_pressure;BME280_temperature;BME280_humidity;BME280_pressure;Samples;Min_cycle;Max_cycle;Signal;HPM_P1;HPM_P2
2023/11/08 00:01:43;;;;;;;0.10;0.10;;;8.00;99.90;;;;;;5050134;28;20025;-74
2023/11/08 00:04:09;;;;;;;0.10;0.10;;;7.90;99.90;;;;;;5053132;28;20013;-75
2023/11/08 00:06:34;;;;;;;0.55;0.55;;;7.80;99.90;;;;;;5052518;28;20115;-75
2023/11/08 00:09:00;;;;;;;0.10;0.10;;;7.70;99.90;;;;;;5048831;28;20021;-74
2023/11/08 00:11:26;;;;;;;0.10;0.10;;;7.60;99.90;;;;;;5052062;28;20148;-75
2023/11/08 00:13:52;;;;;;;0.10;0.10;;;7.60;99.90;;;;;;5048849;28;20412;-75
2023/11/08 00:16:17;;;;;;;0.00;0.00;;;7.60;99.90;;;;;;5049370;28;20029;-75
2023/11/08 00:18:46;;;;;;;0.10;0.10;;;7.70;99.90;;;;;;5046380;28;20027;-75
2023/11/08 00:21:12;;;;;;;0.10;0.10;;;7.80;99.90;;;;;;5047544;28;20095;-74
2023/11/08 00:23:39;;;;;;;0.10;0.10;;;8.00;99.90;;;;;;5050018;28;20033;-73
2023/11/08 00:26:06;;;;;;;0.10;0.10;;;8.10;99.90;;;;;;5053226;28;20553;-74
2023/11/08 00:28:32;;;;;;;0.10;0.10;;;8.20;99.90;;;;;;5049876;28;20037;-74
2023/11/08 00:30:58;;;;;;;0.10;0.10;;;8.20;99.90;;;;;;5048920;28;20059;-75
2023/11/08 00:33:24;;;;;;;0.10;0.10;;;8.20;99.90;;;;;;5049109;28;20809;-74
2023/11/08 00:35:50;;;;;;;0.10;0.10;;;8.20;99.90;;;;;;5049445;28;20021;-75
2023/11/08 00:38:16;;;;;;;0.10;0.10;;;8.10;99.90;;;;;;5048059;28;20113;-74
2023/11/08 00:40:42;;;;;;;0.00;0.00;;;8.10;99.90;;;;;;5049979;28;20025;-74
2023/11/08 00:43:09;;;;;;;0.08;0.08;;;8.20;99.90;;;;;;5048161;28;20032;-74
2023/11/08 00:45:35;;;;;;;0.10;0.10;;;8.10;99.90;;;;;;5048648;28;20037;-73
2023/11/08 00:48:01;;;;;;;0.10;0.10;;;8.20;99.90;;;;;;5049837;28;20036;-74
2023/11/08 00:50:30;;;;;;;0.10;0.10;;;8.30;99.90;;;;;;5049693;28;20343;-74
2023/11/08 00:52:58;;;;;;;0.10;0.10;;;8.20;99.90;;;;;;5046337;28;20033;-74
2023/11/08 00:55:24;;;;;;;0.10;0.10;;;8.20;99.90;;;;;;5047330;28;20377;-74
2023/11/08 00:57:50;;;;;;;0.10;0.10;;;8.20;99.90;;;;;;5047496;28;20029;-73
2023/11/08 01:00:16;;;;;;;0.10;0.10;;;8.30;99.90;;;;;;5049172;28;20411;-74
2023/11/08 01:02:42;;;;;;;0.10;0.10;;;8.30;99.90;;;;;;5048183;28;20571;-74
2023/11/08 01:05:09;;;;;;;0.10;0.10;;;8.40;99.90;;;;;;5052507;28;20103;-74
2023/11/08 01:07:35;;;;;;;0.10;0.10;;;8.40;99.90;;;;;;5049191;28;20017;-74
2023/11/08 01:10:02;;;;;;;0.10;0.10;;;8.50;99.90;;;;;;5049445;28;20035;-74
2023/11/08 01:12:38;;;;;;;0.10;0.10;;;8.50;99.90;;;;;;5047291;28;20028;-77
2023/11/08 01:15:14;;;;;;;0.00;0.00;;;8.60;99.90;;;;;;5052271;28;20024;-76
2023/11/08 01:17:40;;;;;;;0.10;0.10;;;8.60;99.90;;;;;;5046688;28;20690;-74
2023/11/08 01:20:06;;;;;;;0.10;0.10;;;8.50;99.90;;;;;;5049059;28;20040;-74
2023/11/08 01:22:32;;;;;;;0.10;0.10;;;8.40;99.90;;;;;;5047941;28;20033;-74
2023/11/08 01:24:58;;;;;;;0.10;0.10;;;8.50;99.90;;;;;;5048109;28;20763;-75
2023/11/08 01:27:24;;;;;;;0.10;0.10;;;8.40;99.90;;;;;;5047540;28;20041;-74
2023/11/08 01:29:49;;;;;;;1.17;1.10;;;8.50;99.90;;;;;;5044537;28;20025;-74
2023/11/08 01:32:15;;;;;;;0.10;0.10;;;8.40;99.90;;;;;;5044543;28;20037;-74
2023/11/08 01:34:40;;;;;;;0.05;0.05;;;8.50;99.90;;;;;;5041900;28;20033;-75
2023/11/08 01:37:06;;;;;;;0.10;0.10;;;8.50;99.90;;;;;;5035714;28;20064;-74
2023/11/08 01:39:32;;;;;;;0.10;0.10;;;8.40;99.90;;;;;;5048774;28;20025;-75
2023/11/08 01:41:57;;;;;;;0.10;0.10;;;8.40;99.90;;;;;;5047891;28;20048;-74
2023/11/08 01:44:23;;;;;;;0.10;0.10;;;8.40;99.90;;;;;;5030188;28;20033;-74
2023/11/08 01:46:53;;;;;;;0.08;0.08;;;8.40;99.90;;;;;;5044869;28;20049;-75
2023/11/08 01:49:20;;;;;;;0.10;0.10;;;8.50;99.90;;;;;;5039382;28;20034;-75
2023/11/08 01:51:45;;;;;;;0.10;0.10;;;8.50;99.90;;;;;;5045755;28;20753;-75
2023/11/08 01:54:13;;;;;;;0.10;0.10;;;8.60;99.90;;;;;;5033326;28;20132;-75
2023/11/08 01:56:44;;;;;;;0.10;0.10;;;8.70;99.90;;;;;;5047834;28;20098;-76
2023/11/08 01:59:11;;;;;;;0.10;0.10;;;8.70;99.90;;;;;;5039809;28;20022;-76
2023/11/08 02:01:36;;;;;;;;;;;8.50;99.90;;;;;;5045700;28;20068;-74
2023/11/08 02:04:03;;;;;;;0.10;0.10;;;8.60;99.90;;;;;;5040392;28;19919;-74
2023/11/08 02:06:28;;;;;;;0.10;0.10;;;8.50;99.90;;;;;;5040156;28;20029;-74
2023/11/08 02:08:55;;;;;;;0.10;0.10;;;8.60;99.90;;;;;;5042015;28;20040;-74
2023/11/08 02:11:22;;;;;;;0.10;0.10;;;8.60;99.90;;;;;;5041225;28;20029;-74
2023/11/08 02:13:49;;;;;;;0.10;0.10;;;8.50;99.90;;;;;;5039568;28;20134;-74
2023/11/08 02:16:14;;;;;;;0.00;0.00;;;8.40;99.90;;;;;;5047800;28;20036;-73
2023/11/08 02:18:41;;;;;;;0.10;0.10;;;8.50;99.90;;;;;;5040939;28;20703;-74
2023/11/08 02:21:07;;;;;;;0.10;0.10;;;8.30;99.90;;;;;;5050363;28;20425;-74
2023/11/08 02:23:33;;;;;;;0.10;0.10;;;8.40;99.90;;;;;;5048506;28;20037;-74
2023/11/08 02:25:58;;;;;;;0.10;0.10;;;8.30;99.90;;;;;;5050353;28;20294;-74
2023/11/08 02:28:24;;;;;;;0.15;0.15;;;8.40;99.90;;;;;;5051908;28;20037;-74
2023/11/08 02:30:53;;;;;;;0.10;0.10;;;8.50;99.90;;;;;;5051095;28;20037;-74
2023/11/08 02:33:23;;;;;;;0.10;0.10;;;8.30;99.90;;;;;;5047366;28;20025;-74
2023/11/08 02:35:48;;;;;;;0.00;0.00;;;8.30;99.90;;;;;;5043525;28;20040;-74
2023/11/08 02:38:15;;;;;;;0.10;0.10;;;8.20;99.90;;;;;;5050238;28;20756;-74
2023/11/08 02:40:42;;;;;;;0.10;0.10;;;8.30;99.90;;;;;;5047014;28;20049;-74
2023/11/08 02:43:09;;;;;;;0.00;0.00;;;8.40;99.90;;;;;;5045350;28;20047;-73
2023/11/08 02:45:34;;;;;;;0.10;0.10;;;8.50;99.90;;;;;;5049392;28;20037;-74
2023/11/08 02:48:03;;;;;;;0.10;0.10;;;8.40;99.90;;;;;;5047011;28;20684;-73
2023/11/08 02:50:31;;;;;;;0.10;0.10;;;8.40;99.90;;;;;;5048033;28;20457;-75
2023/11/08 02:52:58;;;;;;;0.00;0.00;;;8.40;99.90;;;;;;5048855;28;20132;-75
2023/11/08 02:55:25;;;;;;;0.10;0.10;;;8.40;99.90;;;;;;5048780;28;20607;-75
2023/11/08 02:57:51;;;;;;;;;;;8.40;99.90;;;;;;5049038;28;20495;-75
2023/11/08 03:00:17;;;;;;;0.10;0.10;;;8.50;99.90;;;;;;5045436;28;19912;-74
2023/11/08 03:02:43;;;;;;;0.10;0.10;;;8.50;99.90;;;;;;5054755;28;20070;-75
2023/11/08 03:05:08;;;;;;;0.10;0.10;;;8.50;99.90;;;;;;5039859;28;20034;-75
2023/11/08 03:07:34;;;;;;;0.10;0.10;;;8.50;99.90;;;;;;5042147;28;20025;-75
2023/11/08 03:10:00;;;;;;;0.10;0.10;;;8.50;99.90;;;;;;5044281;28;20021;-74
2023/11/08 03:12:26;;;;;;;0.10;0.10;;;8.40;99.90;;;;;;5041465;28;20021;-74
2023/11/08 03:14:51;;;;;;;0.10;0.10;;;8.30;99.90;;;;;;5048392;28;20041;-73
2023/11/08 03:17:18;;;;;;;0.10;0.10;;;8.40;99.90;;;;;;5046084;28;20032;-74
2023/11/08 03:19:44;;;;;;;0.10;0.10;;;8.40;99.90;;;;;;5046399;28;20075;-74
2023/11/08 03:22:13;;;;;;;0.10;0.10;;;8.30;99.90;;;;;;5047772;28;20025;-74
2023/11/08 03:24:39;;;;;;;0.10;0.10;;;8.40;99.90;;;;;;5046913;28;21325;-74
2023/11/08 03:27:05;;;;;;;0.10;0.10;;;8.40;99.90;;;;;;5050452;28;20029;-74
2023/11/08 03:29:31;;;;;;;0.10;0.10;;;8.50;99.90;;;;;;5044548;28;20044;-75
2023/11/08 03:31:58;;;;;;;0.10;0.10;;;8.50;99.90;;;;;;5047329;28;20102;-75
2023/11/08 03:34:26;;;;;;;0.10;0.10;;;8.50;99.90;;;;;;5045254;28;20586;-74
2023/11/08 03:36:52;;;;;;;0.10;0.10;;;8.50;99.90;;;;;;5046064;28;20044;-74
2023/11/08 03:39:18;;;;;;;0.10;0.10;;;8.50;99.90;;;;;;5045514;28;20909;-75
2023/11/08 03:41:45;;;;;;;0.10;0.10;;;8.50;99.90;;;;;;5045417;28;20071;-75
2023/11/08 03:44:10;;;;;;;0.00;0.00;;;8.50;99.90;;;;;;5049146;28;20041;-75
2023/11/08 03:46:36;;;;;;;0.10;0.10;;;8.60;99.90;;;;;;5046945;28;20040;-74
2023/11/08 03:49:02;;;;;;;0.00;0.00;;;8.50;99.90;;;;;;5046807;28;21062;-74
2023/11/08 03:51:28;;;;;;;0.10;0.10;;;8.60;99.90;;;;;;5045203;28;20101;-74
2023/11/08 03:53:53;;;;;;;0.10;0.10;;;8.50;99.90;;;;;;5046197;28;20033;-75
2023/11/08 03:56:19;;;;;;;0.10;0.10;;;8.60;99.90;;;;;;5046667;28;20044;-74
2023/11/08 03:58:45;;;;;;;0.10;0.10;;;8.60;99.90;;;;;;5049130;28;20113;-75
2023/11/08 04:01:10;;;;;;;0.10;0.10;;;8.50;99.90;;;;;;5046583;28;20087;-75
2023/11/08 04:03:36;;;;;;;0.10;0.10;;;8.60;99.90;;;;;;5053427;28;20518;-75
2023/11/08 04:06:02;;;;;;;0.10;0.10;;;8.60;99.90;;;;;;5047426;28;20017;-74
2023/11/08 04:08:28;;;;;;;0.10;0.10;;;8.60;99.90;;;;;;5047361;28;20132;-74
2023/11/08 04:10:54;;;;;;;0.10;0.10;;;8.60;99.90;;;;;;5048356;28;20043;-74
2023/11/08 04:13:20;;;;;;;0.10;0.10;;;8.60;99.90;;;;;;5055531;28;20108;-75
2023/11/08 04:15:45;;;;;;;0.10;0.10;;;8.60;99.90;;;;;;5048413;28;20511;-74
2023/11/08 04:18:11;;;;;;;0.10;0.10;;;8.60;99.90;;;;;;5047454;28;20025;-74
2023/11/08 04:20:38;;;;;;;0.10;0.10;;;8.60;99.90;;;;;;5049781;28;20033;-74
2023/11/08 04:23:04;;;;;;;0.10;0.10;;;8.60;99.90;;;;;;5050128;28;20055;-75
2023/11/08 04:25:30;;;;;;;0.10;0.10;;;8.60;99.90;;;;;;5048871;28;20043;-75
2023/11/08 04:27:56;;;;;;;0.10;0.10;;;8.70;99.90;;;;;;5051688;28;20036;-75
2023/11/08 04:30:22;;;;;;;0.10;0.10;;;8.60;99.90;;;;;;5047822;28;20043;-75
2023/11/08 04:32:48;;;;;;;0.10;0.10;;;8.60;99.90;;;;;;5049332;28;20512;-74
2023/11/08 04:35:15;;;;;;;0.10;0.10;;;8.60;99.90;;;;;;5048092;28;20029;-73
2023/11/08 04:37:42;;;;;;;0.10;0.10;;;8.40;99.90;;;;;;5050208;28;20045;-74
2023/11/08 04:40:08;;;;;;;;;;;8.50;99.90;;;;;;5047384;28;20028;-73
2023/11/08 04:42:34;;;;;;;0.10;0.10;;;8.50;99.90;;;;;;5048573;28;19951;-74
2023/11/08 04:44:59;;;;;;;0.10;0.10;;;8.60;99.90;;;;;;5049462;28;20044;-74
2023/11/08 04:47:25;;;;;;;0.20;0.20;;;8.60;99.90;;;;;;5054119;28;20037;-73
2023/11/08 04:49:53;;;;;;;0.10;0.10;;;8.60;99.90;;;;;;5050359;28;20062;-73
2023/11/08 04:52:19;;;;;;;0.10;0.10;;;8.60;99.90;;;;;;5048453;28;20190;-73
2023/11/08 04:54:47;;;;;;;0.10;0.10;;;8.50;99.90;;;;;;5047859;28;20032;-74
2023/11/08 04:57:17;;;;;;;;;;;8.60;99.90;;;;;;5049518;28;20041;-73
2023/11/08 04:59:47;;;;;;;0.10;0.10;;;8.60;99.90;;;;;;5046867;28;19983;-73
2023/11/08 05:02:15;;;;;;;0.60;0.60;;;8.60;99.90;;;;;;5046918;28;20025;-74
2023/11/08 05:04:45;;;;;;;0.10;0.10;;;8.50;99.90;;;;;;5050870;28;20108;-74
2023/11/08 05:07:12;;;;;;;0.10;0.10;;;8.50;99.90;;;;;;5048821;28;20137;-74
2023/11/08 05:09:40;;;;;;;0.10;0.10;;;8.60;99.90;;;;;;5049680;28;20927;-73
2023/11/08 05:12:07;;;;;;;0.10;0.10;;;8.50;99.90;;;;;;5047096;28;20033;-74
2023/11/08 05:14:33;;;;;;;0.10;0.10;;;8.50;99.90;;;;;;5048533;28;20033;-74
2023/11/08 05:17:01;;;;;;;0.10;0.10;;;8.60;99.90;;;;;;5048479;28;20464;-74
2023/11/08 05:19:27;;;;;;;0.10;0.10;;;8.60;99.90;;;;;;5046431;28;20918;-74
2023/11/08 05:21:53;;;;;;;0.10;0.10;;;8.50;99.90;;;;;;5045423;28;20664;-74
2023/11/08 05:24:19;;;;;;;0.10;0.10;;;8.60;99.90;;;;;;5048914;28;20033;-73
2023/11/08 05:26:45;;;;;;;0.10;0.10;;;8.60;99.90;;;;;;5048256;28;20029;-74
2023/11/08 05:29:11;;;;;;;0.10;0.10;;;8.60;99.90;;;;;;5050128;28;20344;-74
2023/11/08 05:31:37;;;;;;;0.10;0.10;;;8.50;99.90;;;;;;5050465;28;20029;-74
2023/11/08 05:34:03;;;;;;;0.00;0.00;;;8.60;99.90;;;;;;5048327;28;20033;-74
2023/11/08 05:36:30;;;;;;;0.10;0.10;;;8.60;99.90;;;;;;5047202;28;20375;-73
2023/11/08 05:38:56;;;;;;;0.10;0.10;;;8.70;99.90;;;;;;5047166;28;20275;-74
2023/11/08 05:41:22;;;;;;;0.10;0.10;;;8.70;99.90;;;;;;5047151;28;20052;-74
2023/11/08 05:43:52;;;;;;;0.10;0.10;;;8.70;99.90;;;;;;5047491;28;20124;-74
2023/11/08 05:46:18;;;;;;;0.10;0.10;;;8.70;99.90;;;;;;5046892;28;20047;-75
2023/11/08 05:48:43;;;;;;;0.80;0.80;;;8.50;99.90;;;;;;5047759;28;20515;-74
2023/11/08 05:51:09;;;;;;;0.20;0.20;;;8.40;99.90;;;;;;5046302;28;20033;-74
2023/11/08 05:53:37;;;;;;;0.10;0.10;;;8.40;99.90;;;;;;5042594;28;20037;-75
2023/11/08 05:56:03;;;;;;;0.10;0.10;;;8.40;99.90;;;;;;5044120;28;20040;-75
2023/11/08 05:58:29;;;;;;;0.10;0.10;;;8.40;99.90;;;;;;5039113;28;20132;-75
2023/11/08 06:00:56;;;;;;;0.10;0.10;;;8.30;99.90;;;;;;5041107;28;20104;-74
2023/11/08 06:03:21;;;;;;;;;;;8.30;99.90;;;;;;5044423;28;20029;-74
2023/11/08 06:05:47;;;;;;;0.10;0.10;;;8.10;99.90;;;;;;5047274;28;20531;-74
2023/11/08 06:08:12;;;;;;;0.10;0.10;;;8.00;99.90;;;;;;5047731;28;20035;-73
2023/11/08 06:10:38;;;;;;;0.20;0.20;;;8.00;99.90;;;;;;5036096;28;20039;-74
2023/11/08 06:13:04;;;;;;;0.10;0.10;;;8.20;99.90;;;;;;5051324;28;20834;-74
2023/11/08 06:15:29;;;;;;;0.10;0.10;;;8.30;99.90;;;;;;5050504;28;20029;-74
2023/11/08 06:17:55;;;;;;;0.22;0.22;;;8.40;99.90;;;;;;5029886;28;20041;-73
2023/11/08 06:20:22;;;;;;;0.10;0.10;;;8.60;99.90;;;;;;5035813;28;20093;-74
2023/11/08 06:22:48;;;;;;;0.10;0.10;;;8.60;99.90;;;;;;5044282;28;20966;-74
2023/11/08 06:25:14;;;;;;;0.10;0.10;;;8.60;99.90;;;;;;5043180;28;20040;-74
2023/11/08 06:27:40;;;;;;;0.10;0.10;;;8.60;99.90;;;;;;5045248;28;20120;-74
2023/11/08 06:30:07;;;;;;;0.15;0.15;;;8.40;99.90;;;;;;5032643;28;20117;-74
2023/11/08 06:32:33;;;;;;;0.10;0.10;;;8.50;99.90;;;;;;5034953;28;20095;-73
2023/11/08 06:35:00;;;;;;;0.17;0.17;;;8.50;99.90;;;;;;5047201;28;20065;-73
2023/11/08 06:37:29;;;;;;;0.10;0.10;;;8.40;99.90;;;;;;5038018;28;20025;-75
2023/11/08 06:39:55;;;;;;;0.10;0.10;;;8.50;99.90;;;;;;5045433;28;20182;-74
2023/11/08 06:42:21;;;;;;;0.00;0.00;;;8.60;99.90;;;;;;5044867;28;20139;-75
2023/11/08 06:44:47;;;;;;;0.10;0.10;;;8.60;99.90;;;;;;5034866;28;20031;-74
2023/11/08 06:47:13;;;;;;;0.10;0.10;;;8.60;99.90;;;;;;5035998;28;20037;-75
2023/11/08 06:49:39;;;;;;;0.10;0.10;;;8.60;99.90;;;;;;5043259;28;20040;-76
2023/11/08 06:52:05;;;;;;;0.10;0.10;;;8.40;99.90;;;;;;5030496;28;20504;-75
2023/11/08 06:54:33;;;;;;;0.03;0.03;;;8.50;99.90;;;;;;5035445;28;20033;-76
2023/11/08 06:56:58;;;;;;;0.10;0.10;;;8.50;99.90;;;;;;5045118;28;20021;-75
2023/11/08 06:59:24;;;;;;;0.10;0.10;;;8.50;99.90;;;;;;5035504;28;20021;-76
2023/11/08 07:01:50;;;;;;;0.10;0.10;;;8.60;99.90;;;;;;5043105;28;20021;-77
2023/11/08 07:04:16;;;;;;;0.10;0.10;;;8.60;99.90;;;;;;5041199;28;20488;-78
2023/11/08 07:06:42;;;;;;;0.10;0.10;;;8.60;99.90;;;;;;5043670;28;20058;-77
2023/11/08 07:09:11;;;;;;;0.10;0.10;;;8.70;99.90;;;;;;5042786;28;20300;-76
2023/11/08 07:11:37;;;;;;;0.10;0.10;;;8.80;99.90;;;;;;5038382;28;20040;-74
2023/11/08 07:14:03;;;;;;;0.73;0.73;;;8.80;99.90;;;;;;5045674;28;20033;-74
2023/11/08 07:16:29;;;;;;;0.10;0.10;;;8.80;99.90;;;;;;5039015;28;20117;-77
2023/11/08 07:18:56;;;;;;;0.10;0.10;;;8.80;99.90;;;;;;5038985;28;20025;-76
2023/11/08 07:21:22;;;;;;;0.10;0.10;;;8.80;99.90;;;;;;5038375;28;20025;-76
2023/11/08 07:23:50;;;;;;;0.10;0.10;;;8.90;99.90;;;;;;5028981;28;20037;-76
2023/11/08 07:26:16;;;;;;;0.10;0.10;;;8.90;99.90;;;;;;5042270;28;20495;-75
2023/11/08 07:28:44;;;;;;;0.80;0.57;;;8.90;99.90;;;;;;5029300;28;20033;-76
2023/11/08 07:31:10;;;;;;;0.03;0.03;;;8.90;99.90;;;;;;5046240;28;20029;-76
2023/11/08 07:33:36;;;;;;;0.10;0.10;;;8.90;99.90;;;;;;5037001;28;20103;-76
2023/11/08 07:36:02;;;;;;;0.05;0.05;;;8.90;99.90;;;;;;5035878;28;20071;-76
2023/11/08 07:38:28;;;;;;;0.00;0.00;;;8.90;99.90;;;;;;5045951;28;20071;-76
2023/11/08 07:40:54;;;;;;;0.10;0.10;;;8.90;99.90;;;;;;5042326;28;20060;-76
2023/11/08 07:43:19;;;;;;;0.10;0.10;;;8.90;99.90;;;;;;5041386;28;20100;-76
2023/11/08 07:45:48;;;;;;;1.17;1.08;;;8.90;99.90;;;;;;5042355;28;20039;-76
2023/11/08 07:48:14;;;;;;;0.10;0.10;;;8.70;99.90;;;;;;5042855;28;20014;-76
2023/11/08 07:50:40;;;;;;;0.10;0.10;;;8.90;99.90;;;;;;5048973;28;20025;-76
2023/11/08 07:53:06;;;;;;;0.10;0.10;;;8.90;99.90;;;;;;5044422;28;20039;-76
2023/11/08 07:55:32;;;;;;;0.10;0.10;;;9.20;99.90;;;;;;5043647;28;20033;-75
2023/11/08 07:57:57;;;;;;;0.00;0.00;;;9.30;99.90;;;;;;5043800;28;20109;-76
2023/11/08 08:00:24;;;;;;;0.00;0.00;;;9.40;99.90;;;;;;5050003;28;20029;-76
2023/11/08 08:02:50;;;;;;;0.10;0.10;;;9.50;99.90;;;;;;5058379;28;20741;-76
2023/11/08 08:05:16;;;;;;;0.00;0.00;;;9.40;99.90;;;;;;5057536;28;20137;-76
2023/11/08 08:07:42;;;;;;;0.10;0.10;;;9.30;99.90;;;;;;5047286;28;20040;-76
2023/11/08 08:10:09;;;;;;;0.00;0.00;;;9.20;99.90;;;;;;5057266;28;20116;-76
2023/11/08 08:12:35;;;;;;;0.10;0.10;;;9.30;99.90;;;;;;5049936;28;20029;-75
2023/11/08 08:15:01;;;;;;;0.10;0.10;;;9.30;99.90;;;;;;5058033;28;20079;-76
2023/11/08 08:17:27;;;;;;;0.10;0.10;;;9.40;99.90;;;;;;5056910;28;20063;-75
2023/11/08 08:19:54;;;;;;;0.10;0.10;;;9.60;99.90;;;;;;5052362;28;20087;-76
2023/11/08 08:22:21;;;;;;;0.05;0.05;;;9.80;99.90;;;;;;5053515;28;20443;-76
2023/11/08 08:24:48;;;;;;;0.10;0.10;;;9.80;99.90;;;;;;5053965;28;20924;-76
2023/11/08 08:27:14;;;;;;;0.15;0.15;;;9.80;99.90;;;;;;5055236;28;20448;-76
2023/11/08 08:29:40;;;;;;;0.00;0.00;;;9.90;99.90;;;;;;5057873;28;20128;-76
2023/11/08 08:32:06;;;;;;;0.10;0.10;;;9.80;99.90;;;;;;5054907;28;20818;-76
2023/11/08 08:34:32;;;;;;;0.10;0.10;;;9.90;99.90;;;;;;5054140;28;20154;-77
2023/11/08 08:36:58;;;;;;;0.10;0.10;;;10.00;99.90;;;;;;5049551;28;20726;-76
2023/11/08 08:39:27;;;;;;;0.15;0.15;;;10.00;99.90;;;;;;5053157;28;20079;-76
2023/11/08 08:41:53;;;;;;;0.10;0.10;;;10.10;99.90;;;;;;5043766;28;20113;-76
2023/11/08 08:44:19;;;;;;;0.35;0.35;;;10.10;99.90;;;;;;5054182;28;20021;-76
2023/11/08 08:46:45;;;;;;;0.90;0.90;;;10.00;99.90;;;;;;5048475;28;20041;-76
2023/11/08 08:49:12;;;;;;;0.05;0.05;;;9.80;99.90;;;;;;5048342;28;20029;-76
2023/11/08 08:51:38;;;;;;;;;;;9.90;99.90;;;;;;5054727;28;20848;-76
2023/11/08 08:54:06;;;;;;;0.10;0.10;;;9.90;99.90;;;;;;5052997;28;19912;-76
2023/11/08 08:56:36;;;;;;;0.10;0.10;;;9.70;99.90;;;;;;5054520;28;20045;-76
2023/11/08 08:59:02;;;;;;;0.10;0.10;;;9.50;99.90;;;;;;5054278;28;20500;-77
2023/11/08 09:01:28;;;;;;;0.00;0.00;;;9.50;99.90;;;;;;5049195;28;20060;-76
2023/11/08 09:03:53;;;;;;;0.52;0.25;;;9.70;99.90;;;;;;5059314;28;20032;-77
2023/11/08 09:06:19;;;;;;;0.10;0.10;;;10.00;99.90;;;;;;5049243;28;20630;-76
2023/11/08 09:08:46;;;;;;;0.15;0.15;;;10.20;99.90;;;;;;5047976;28;20036;-77
2023/11/08 09:11:11;;;;;;;0.00;0.00;;;10.10;99.90;;;;;;5052126;28;20032;-76
2023/11/08 09:13:37;;;;;;;0.10;0.10;;;10.20;99.90;;;;;;5057025;28;20735;-76
2023/11/08 09:16:07;;;;;;;0.00;0.00;;;10.40;99.90;;;;;;5047909;28;20052;-76
2023/11/08 09:18:33;;;;;;;0.10;0.10;;;10.40;99.90;;;;;;5053145;28;20046;-77
2023/11/08 09:20:59;;;;;;;0.10;0.10;;;10.70;99.90;;;;;;5045421;28;20071;-76
2023/11/08 09:23:28;;;;;;;0.10;0.10;;;10.70;99.90;;;;;;5049367;28;20025;-77
2023/11/08 09:25:54;;;;;;;0.10;0.10;;;10.90;99.90;;;;;;5048415;28;20025;-77
2023/11/08 09:28:19;;;;;;;0.10;0.10;;;10.60;99.90;;;;;;5048685;28;20029;-76
2023/11/08 09:30:45;;;;;;;0.10;0.10;;;10.90;99.90;;;;;;5048832;28;20280;-76
2023/11/08 09:33:12;;;;;;;0.00;0.00;;;11.30;99.90;;;;;;5048519;28;20025;-77
2023/11/08 09:35:38;;;;;;;0.00;0.00;;;11.30;99.90;;;;;;5047889;28;20025;-76
2023/11/08 09:38:04;;;;;;;0.10;0.10;;;11.40;99.90;;;;;;5048796;28;20029;-76
2023/11/08 09:40:30;;;;;;;0.00;0.00;;;11.60;99.90;;;;;;5053513;28;20033;-76
2023/11/08 09:42:57;;;;;;;0.03;0.03;;;11.80;99.90;;;;;;5058752;28;20017;-76
2023/11/08 09:45:31;;;;;;;0.00;0.00;;;11.60;99.90;;;;;;5049031;28;20029;-76
2023/11/08 09:47:57;;;;;;;0.10;0.10;;;11.60;99.90;;;;;;5047538;28;20048;-76
2023/11/08 09:50:24;;;;;;;0.10;0.10;;;11.60;99.90;;;;;;5049901;28;20032;-77
2023/11/08 09:52:51;;;;;;;0.00;0.00;;;12.10;99.90;;;;;;5052216;28;20055;-77
2023/11/08 09:55:17;;;;;;;0.22;0.22;;;11.70;99.90;;;;;;5049238;28;20036;-76
2023/11/08 09:57:49;;;;;;;0.10;0.10;;;11.80;99.90;;;;;;5051354;28;20025;-76
2023/11/08 10:00:19;;;;;;;0.00;0.00;;;11.20;99.90;;;;;;5049358;28;20028;-76
2023/11/08 10:02:45;;;;;;;0.10;0.10;;;11.40;99.90;;;;;;5047897;28;20028;-77
2023/11/08 10:05:12;;;;;;;0.00;0.00;;;11.80;99.90;;;;;;5054862;28;20028;-76
2023/11/08 10:07:39;;;;;;;0.00;0.00;;;12.00;99.90;;;;;;5051130;28;20640;-77
2023/11/08 10:10:06;;;;;;;0.05;0.05;;;11.80;99.90;;;;;;5048423;28;20491;-77
2023/11/08 10:12:32;;;;;;;0.10;0.10;;;11.70;99.90;;;;;;5048198;28;20052;-77
2023/11/08 10:15:02;;;;;;;0.40;0.40;;;12.00;99.90;;;;;;5054566;28;20063;-76
2023/11/08 10:17:46;;;;;;;0.10;0.10;;;12.10;99.90;;;;;;5049304;28;20136;-77
2023/11/08 10:20:20;;;;;;;0.10;0.10;;;12.10;99.90;;;;;;5045890;28;20016;-77
2023/11/08 10:22:46;;;;;;;0.10;0.10;;;12.00;99.90;;;;;;5051032;28;20025;-77
2023/11/08 10:25:12;;;;;;;0.00;0.00;;;12.10;99.90;;;;;;5051507;28;20021;-77
2023/11/08 10:27:37;;;;;;;0.00;0.00;;;12.30;99.90;;;;;;5046474;28;20052;-77
2023/11/08 10:30:15;;;;;;;0.10;0.10;;;12.00;99.90;;;;;;5051905;28;20409;-77
2023/11/08 10:32:43;;;;;;;0.10;0.10;;;11.90;99.90;;;;;;5046508;28;20029;-77
2023/11/08 10:35:14;;;;;;;0.00;0.00;;;12.30;99.90;;;;;;5047764;28;20722;-77
2023/11/08 10:37:40;;;;;;;0.10;0.10;;;12.60;99.90;;;;;;5052948;28;20024;-76
2023/11/08 10:40:08;;;;;;;0.10;0.10;;;12.30;99.90;;;;;;5044426;28;20026;-77
2023/11/08 10:42:34;;;;;;;0.00;0.00;;;11.60;99.90;;;;;;5055948;28;20586;-77
2023/11/08 10:45:10;;;;;;;0.00;0.00;;;12.00;99.90;;;;;;5047908;28;20080;-77
2023/11/08 10:47:39;;;;;;;0.20;0.20;;;12.50;99.90;;;;;;5057244;28;20063;-77
2023/11/08 10:50:06;;;;;;;0.10;0.10;;;12.70;99.90;;;;;;5046925;28;20021;-77
2023/11/08 10:52:37;;;;;;;0.10;0.10;;;12.50;99.90;;;;;;5051049;28;20036;-77
2023/11/08 10:55:06;;;;;;;0.00;0.00;;;12.60;99.90;;;;;;5047073;28;20471;-77
2023/11/08 10:57:33;;;;;;;0.00;0.00;;;12.30;99.90;;;;;;5047046;28;20021;-77
2023/11/08 11:00:01;;;;;;;0.10;0.10;;;12.10;99.90;;;;;;5047188;28;20458;-77
2023/11/08 11:02:39;;;;;;;1.15;0.68;;;12.30;99.90;;;;;;5058696;28;20035;-77
2023/11/08 11:05:08;;;;;;;0.10;0.10;;;12.30;99.90;;;;;;5042173;28;20052;-77
2023/11/08 11:07:41;;;;;;;0.10;0.10;;;12.20;99.90;;;;;;5051629;28;20029;-76
2023/11/08 11:10:09;;;;;;;0.00;0.00;;;12.10;99.90;;;;;;5057792;28;20080;-77
2023/11/08 11:12:48;;;;;;;0.00;0.00;;;12.20;99.90;;;;;;5046594;28;20025;-77
2023/11/08 11:15:19;;;;;;;0.10;0.10;;;11.80;99.90;;;;;;5045907;28;20025;-76
2023/11/08 11:17:51;;;;;;;0.10;0.10;;;12.00;99.90;;;;;;5050664;28;20024;-77
2023/11/08 11:20:19;;;;;;;0.10;0.10;;;11.90;99.90;;;;;;5049725;28;20028;-77
2023/11/08 11:22:45;;;;;;;0.00;0.00;;;11.90;99.90;;;;;;5049892;28;20053;-77
2023/11/08 11:25:11;;;;;;;0.10;0.10;;;11.90;99.90;;;;;;5055730;28;20063;-77
2023/11/08 11:27:43;;;;;;;0.10;0.10;;;12.10;99.90;;;;;;5051292;28;20031;-77
2023/11/08 11:30:18;;;;;;;0.08;0.08;;;12.10;99.90;;;;;;5054286;28;20021;-77
2023/11/08 11:32:47;;;;;;;0.00;0.00;;;12.20;99.90;;;;;;5053759;28;20067;-77
2023/11/08 11:35:17;;;;;;;0.10;0.10;;;12.40;99.90;;;;;;5047801;28;20037;-77
2023/11/08 11:38:02;;;;;;;0.10;0.10;;;12.60;99.90;;;;;;5051678;28;20029;-77
2023/11/08 11:40:28;;;;;;;0.10;0.10;;;12.20;99.90;;;;;;5051889;28;20031;-78
2023/11/08 11:42:54;;;;;;;0.00;0.00;;;12.10;99.90;;;;;;5051337;28;20411;-77
2023/11/08 11:45:21;;;;;;;0.10;0.10;;;12.20;99.90;;;;;;5050150;28;20052;-77
2023/11/08 11:47:51;;;;;;;0.08;0.08;;;12.20;99.90;;;;;;5049433;28;20029;-77
2023/11/08 11:50:18;;;;;;;0.00;0.00;;;12.50;99.90;;;;;;5044179;28;20037;-77
2023/11/08 11:52:48;;;;;;;0.10;0.10;;;12.30;99.90;;;;;;5059884;28;20028;-77
2023/11/08 11:55:15;;;;;;;0.10;0.10;;;12.30;99.90;;;;;;5050897;28;20059;-76
2023/11/08 11:57:41;;;;;;;0.10;0.10;;;12.50;99.90;;;;;;5054665;28;20020;-77
2023/11/08 12:00:11;;;;;;;0.00;0.00;;;12.80;99.90;;;;;;5051501;28;20025;-77
2023/11/08 12:02:37;;;;;;;0.10;0.10;;;13.00;99.90;;;;;;5050487;28;20029;-77
2023/11/08 12:05:05;;;;;;;0.03;0.03;;;12.80;99.60;;;;;;5057463;28;20207;-77
2023/11/08 12:07:30;;;;;;;0.00;0.00;;;12.60;99.90;;;;;;5055257;28;20293;-77
2023/11/08 12:10:00;;;;;;;0.10;0.10;;;12.20;99.90;;;;;;5038489;28;20481;-76
2023/11/08 12:12:30;;;;;;;0.30;0.30;;;12.40;99.90;;;;;;5049757;28;20029;-77
2023/11/08 12:14:57;;;;;;;0.00;0.00;;;12.40;99.90;;;;;;5039348;28;20029;-77
2023/11/08 12:17:24;;;;;;;0.00;0.00;;;12.70;99.80;;;;;;5047727;28;20585;-77
2023/11/08 12:19:50;;;;;;;0.00;0.00;;;12.60;98.90;;;;;;5047289;28;20587;-77
2023/11/08 12:22:16;;;;;;;0.00;0.00;;;12.40;99.70;;;;;;5047574;28;20025;-78
2023/11/08 12:24:42;;;;;;;0.00;0.00;;;12.60;99.10;;;;;;5057934;28;20111;-77
2023/11/08 12:27:07;;;;;;;0.00;0.00;;;12.50;99.20;;;;;;5054690;28;20040;-77
2023/11/08 12:29:33;;;;;;;0.10;0.10;;;12.70;99.10;;;;;;5057545;28;20471;-77
2023/11/08 12:32:02;;;;;;;0.57;0.57;;;12.50;98.90;;;;;;5054860;28;20033;-77
2023/11/08 12:34:28;;;;;;;0.00;0.00;;;12.70;98.90;;;;;;5059835;28;20028;-77
2023/11/08 12:36:57;;;;;;;0.03;0.03;;;12.70;98.60;;;;;;5052941;28;20025;-76
2023/11/08 12:39:25;;;;;;;0.00;0.00;;;12.40;99.10;;;;;;5055049;28;20029;-77
2023/11/08 12:41:56;;;;;;;0.10;0.10;;;12.50;99.10;;;;;;5044390;28;20063;-77
2023/11/08 12:44:24;;;;;;;0.10;0.10;;;12.30;99.40;;;;;;5059379;28;20036;-77
2023/11/08 12:46:52;;;;;;;0.10;0.10;;;12.20;99.30;;;;;;5049421;28;20043;-77
2023/11/08 12:49:23;;;;;;;0.00;0.00;;;12.50;99.60;;;;;;5052320;28;20094;-77
2023/11/08 12:51:48;;;;;;;0.10;0.10;;;12.40;98.90;;;;;;5051994;28;20112;-76
2023/11/08 12:54:15;;;;;;;0.00;0.00;;;12.20;99.20;;;;;;5058416;28;20087;-76